Time;durP1;ratioP1;P1;durP2;ratioP2;P2;SDS_P1;SDS_P2;PMS_P1;PMS_P2;Temp;Humidity;BMP_temperature;BMP_pressure;BME280_temperature;BME280_humidity;BME280_pressure;Samples;Min_cycle;Max_cycle;Signal;HPM_P1;HPM_P2
2023/05/24 00:02:27;;;;;;;14.20;3.37;;;6.70;99.90;;;;;;5142662;27;20200;-79
2023/05/24 00:04:54;;;;;;;10.50;3.47;;;6.80;99.90;;;;;;5134832;27;20685;-79
2023/05/24 00:07:21;;;;;;;10.47;3.17;;;6.80;99.90;;;;;;5142577;27;20204;-80
2023/05/24 00:09:47;;;;;;;11.70;3.93;;;6.70;99.90;;;;;;5137535;27;20847;-81
2023/05/24 00:12:14;;;;;;;12.77;3.17;;;6.70;99.90;;;;;;5128765;27;20290;-79
2023/05/24 00:14:41;;;;;;;13.63;3.03;;;6.70;99.90;;;;;;5135808;27;20213;-80
2023/05/24 00:17:08;;;;;;;10.37;2.93;;;6.80;99.90;;;;;;5116472;27;20204;-80
2023/05/24 00:19:37;;;;;;;13.63;4.70;;;6.70;99.90;;;;;;5139987;27;20223;-79
2023/05/24 00:22:04;;;;;;;10.30;3.07;;;6.70;99.90;;;;;;5129316;27;20660;-80
2023/05/24 00:24:30;;;;;;;13.53;3.30;;;6.90;99.90;;;;;;5139284;27;20223;-80
2023/05/24 00:26:58;;;;;;;11.90;3.07;;;7.00;99.90;;;;;;5132260;27;20215;-80
2023/05/24 00:29:24;;;;;;;13.37;2.93;;;7.00;99.90;;;;;;5134572;27;20220;-80
2023/05/24 00:31:51;;;;;;;10.60;3.07;;;7.10;99.90;;;;;;5134082;27;20206;-80
2023/05/24 00:34:18;;;;;;;14.03;3.50;;;7.10;99.90;;;;;;5142233;27;20243;-81
2023/05/24 00:36:46;;;;;;;9.37;2.80;;;7.10;99.90;;;;;;5127466;27;20268;-80
2023/05/24 00:39:13;;;;;;;14.23;4.17;;;7.10;99.90;;;;;;5113793;28;20794;-79
2023/05/24 00:41:40;;;;;;;10.07;3.07;;;7.30;99.90;;;;;;5129500;27;20227;-79
2023/05/24 00:44:09;;;;;;;9.87;3.30;;;7.30;99.90;;;;;;5136028;27;20216;-80
2023/05/24 00:46:37;;;;;;;11.60;3.83;;;7.30;99.90;;;;;;5133443;27;20575;-79
2023/05/24 00:49:04;;;;;;;12.93;3.30;;;7.30;99.90;;;;;;5129886;27;20243;-79
2023/05/24 00:51:32;;;;;;;10.13;3.07;;;7.50;99.90;;;;;;5113479;27;20197;-80
2023/05/24 00:54:00;;;;;;;8.43;3.10;;;7.50;99.90;;;;;;5142734;27;20272;-80
2023/05/24 00:56:27;;;;;;;12.10;3.80;;;7.40;99.90;;;;;;5126723;27;20202;-80
2023/05/24 00:58:55;;;;;;;13.53;3.50;;;7.40;99.90;;;;;;5119647;27;20215;-80
2023/05/24 01:01:24;;;;;;;12.70;3.23;;;7.30;99.90;;;;;;5116628;28;20584;-80
2023/05/24 01:03:52;;;;;;;11.03;3.53;;;7.50;99.90;;;;;;5127632;27;20588;-81
2023/05/24 01:06:19;;;;;;;13.07;3.17;;;7.30;99.90;;;;;;5115864;28;20234;-81
2023/05/24 01:08:58;;;;;;;13.70;3.50;;;7.30;99.90;;;;;;5114072;27;20663;-80
2023/05/24 01:11:43;;;;;;;16.13;3.40;;;7.30;99.90;;;;;;5114434;27;20204;-80
2023/05/24 01:14:22;;;;;;;14.90;3.67;;;7.40;99.90;;;;;;5120841;27;20614;-80
2023/05/24 01:16:53;;;;;;;12.00;3.50;;;7.50;99.90;;;;;;5119470;27;20216;-80
2023/05/24 01:19:49;;;;;;;13.23;3.57;;;7.50;99.90;;;;;;5119424;28;20203;-80
2023/05/24 01:22:38;;;;;;;14.67;3.90;;;7.50;99.90;;;;;;5134540;27;20196;-81
2023/05/24 01:25:12;;;;;;;15.73;3.67;;;7.50;99.90;;;;;;5131943;27;20227;-80
2023/05/24 01:27:42;;;;;;;19.83;4.27;;;7.60;99.90;;;;;;5127531;27;20205;-80
2023/05/24 01:30:10;;;;;;;13.60;3.53;;;7.50;99.90;;;;;;5121609;27;20223;-80
2023/05/24 01:32:37;;;;;;;14.07;4.07;;;7.40;99.90;;;;;;5139476;27;20282;-80
2023/05/24 01:35:04;;;;;;;18.23;3.80;;;7.40;99.90;;;;;;5130121;27;20299;-80
2023/05/24 01:37:31;;;;;;;14.17;3.40;;;7.40;99.90;;;;;;5124953;27;20947;-80
2023/05/24 01:39:58;;;;;;;13.43;4.17;;;7.40;99.90;;;;;;5137076;27;20196;-80
2023/05/24 01:42:27;;;;;;;18.40;3.80;;;7.50;99.90;;;;;;5124764;27;20210;-79
2023/05/24 01:45:04;;;;;;;16.20;4.60;;;7.70;99.90;;;;;;5148954;27;20298;-80
2023/05/24 01:47:42;;;;;;;17.30;4.07;;;7.60;99.90;;;;;;5136090;27;20212;-79
2023/05/24 01:50:17;;;;;;;14.87;4.10;;;7.60;99.90;;;;;;5140437;27;20224;-79
2023/05/24 01:52:45;;;;;;;12.90;3.30;;;7.70;99.90;;;;;;5135624;27;20207;-80
2023/05/24 01:55:14;;;;;;;15.33;4.60;;;7.70;99.90;;;;;;5145190;27;20286;-79
2023/05/24 01:57:44;;;;;;;16.67;4.87;;;7.70;99.90;;;;;;5141015;27;20200;-80
2023/05/24 02:00:15;;;;;;;16.20;4.60;;;7.90;99.90;;;;;;5156466;27;20192;-80
2023/05/24 02:02:42;;;;;;;13.60;4.00;;;7.80;99.90;;;;;;5147213;27;20561;-80
2023/05/24 02:05:10;;;;;;;12.73;3.63;;;7.80;99.90;;;;;;5134659;27;20254;-79
2023/05/24 02:07:37;;;;;;;19.67;4.73;;;7.80;99.90;;;;;;5140080;27;20203;-79
2023/05/24 02:10:05;;;;;;;16.63;4.23;;;7.90;99.90;;;;;;5142193;27;20231;-80
2023/05/24 02:12:32;;;;;;;15.33;3.63;;;7.90;99.90;;;;;;5139904;27;20194;-79
2023/05/24 02:14:59;;;;;;;13.73;4.23;;;7.70;99.90;;;;;;5130100;27;20229;-79
2023/05/24 02:17:27;;;;;;;17.03;4.23;;;7.80;99.90;;;;;;5134779;27;20203;-80
2023/05/24 02:19:53;;;;;;;15.70;4.50;;;7.80;99.90;;;;;;5130117;27;20749;-80
2023/05/24 02:22:21;;;;;;;14.50;4.60;;;7.80;99.90;;;;;;5127300;27;20667;-79
2023/05/24 02:24:48;;;;;;;20.27;5.10;;;7.80;99.90;;;;;;5137354;27;20772;-80
2023/05/24 02:27:14;;;;;;;18.00;4.77;;;7.60;99.90;;;;;;5136442;27;20221;-79
2023/05/24 02:29:41;;;;;;;14.50;4.63;;;7.70;99.90;;;;;;5134920;27;20705;-81
2023/05/24 02:32:11;;;;;;;17.83;4.93;;;7.70;99.90;;;;;;5146847;27;20544;-80
2023/05/24 02:34:39;;;;;;;17.97;5.43;;;7.70;99.90;;;;;;5146931;27;20239;-79
2023/05/24 02:37:06;;;;;;;16.37;5.03;;;7.70;99.90;;;;;;5147102;27;20648;-79
2023/05/24 02:39:33;;;;;;;17.90;4.83;;;7.60;99.90;;;;;;5157288;27;20214;-79
2023/05/24 02:42:00;;;;;;;18.00;4.73;;;7.50;99.90;;;;;;5142101;27;20209;-79
2023/05/24 02:44:26;;;;;;;15.40;4.77;;;7.50;99.90;;;;;;5143466;27;20225;-79
2023/05/24 02:46:53;;;;;;;12.10;4.20;;;7.50;99.90;;;;;;5133387;27;21235;-78
2023/05/24 02:49:20;;;;;;;17.80;4.50;;;7.50;99.90;;;;;;5116613;27;20708;-79
2023/05/24 02:51:51;;;;;;;16.20;4.90;;;7.40;99.90;;;;;;5116574;27;20215;-79
2023/05/24 02:54:18;;;;;;;16.33;4.67;;;7.60;99.90;;;;;;5120419;27;20231;-79
2023/05/24 02:56:46;;;;;;;14.40;4.83;;;7.40;99.90;;;;;;5122752;27;20623;-79
2023/05/24 02:59:13;;;;;;;16.80;5.17;;;7.40;99.90;;;;;;5126298;27;20197;-78
2023/05/24 03:01:40;;;;;;;13.80;4.50;;;7.40;99.90;;;;;;5124828;27;20611;-79
2023/05/24 03:04:07;;;;;;;19.60;5.40;;;7.40;99.90;;;;;;5120131;27;20219;-78
2023/05/24 03:06:34;;;;;;;25.10;5.80;;;7.40;99.90;;;;;;5122669;27;20197;-79
2023/05/24 03:09:02;;;;;;;21.40;6.10;;;7.40;99.90;;;;;;5129276;27;20192;-79
2023/05/24 03:11:28;;;;;;;19.73;4.97;;;7.40;99.90;;;;;;5128680;27;20684;-79
2023/05/24 03:13:55;;;;;;;21.47;5.33;;;7.40;99.90;;;;;;5131007;27;20226;-79
2023/05/24 03:16:22;;;;;;;23.63;5.27;;;7.40;99.90;;;;;;5127085;27;20208;-78
2023/05/24 03:18:49;;;;;;;17.27;5.10;;;7.40;99.90;;;;;;5124942;27;20216;-79
2023/05/24 03:21:16;;;;;;;21.70;5.17;;;7.40;99.90;;;;;;5121493;27;20215;-79
2023/05/24 03:23:43;;;;;;;16.23;4.80;;;7.40;99.90;;;;;;5117947;27;20613;-78
2023/05/24 03:26:12;;;;;;;21.83;4.50;;;7.50;99.90;;;;;;5130389;27;20572;-79
2023/05/24 03:28:39;;;;;;;25.73;5.23;;;7.40;99.90;;;;;;5117465;27;20234;-80
2023/05/24 03:31:06;;;;;;;17.57;5.10;;;7.50;99.90;;;;;;5126836;27;20231;-79
2023/05/24 03:33:33;;;;;;;21.03;6.43;;;7.50;99.90;;;;;;5114646;27;20293;-80
2023/05/24 03:36:01;;;;;;;16.80;5.00;;;7.50;99.90;;;;;;5123045;27;20287;-78
2023/05/24 03:38:28;;;;;;;17.47;7.87;;;7.50;99.90;;;;;;5125956;27;20192;-79
2023/05/24 03:40:55;;;;;;;17.03;4.37;;;7.50;99.90;;;;;;5125143;27;20292;-79
2023/05/24 03:43:23;;;;;;;16.73;5.10;;;7.60;99.90;;;;;;5116736;27;20217;-79
2023/05/24 03:45:50;;;;;;;14.97;4.83;;;7.60;99.90;;;;;;5118275;27;20207;-79
2023/05/24 03:48:20;;;;;;;17.50;4.93;;;7.60;99.90;;;;;;5118585;27;20203;-79
2023/05/24 03:50:47;;;;;;;21.87;5.03;;;7.50;99.90;;;;;;5120944;27;20398;-80
2023/05/24 03:53:13;;;;;;;16.57;4.63;;;7.50;99.90;;;;;;5121011;27;20237;-81
2023/05/24 03:55:40;;;;;;;18.50;4.73;;;7.60;99.90;;;;;;5129532;27;20202;-79
2023/05/24 03:58:11;;;;;;;16.17;4.97;;;7.60;99.90;;;;;;5123091;27;20196;-79
2023/05/24 04:00:39;;;;;;;23.10;5.40;;;7.60;99.90;;;;;;5116814;27;20291;-80
2023/05/24 04:03:07;;;;;;;17.17;4.87;;;7.70;99.90;;;;;;5120347;27;20292;-80
2023/05/24 04:05:34;;;;;;;13.73;4.40;;;7.80;99.90;;;;;;5117590;27;20201;-81
2023/05/24 04:08:01;;;;;;;16.10;4.27;;;7.70;99.90;;;;;;5119456;27;20223;-80
2023/05/24 04:10:28;;;;;;;19.13;4.90;;;7.60;99.90;;;;;;5127957;27;20269;-81
2023/05/24 04:12:55;;;;;;;16.47;4.07;;;7.90;99.90;;;;;;5139350;27;20192;-81
2023/05/24 04:15:25;;;;;;;19.37;5.73;;;7.90;99.90;;;;;;5133248;27;20287;-79
2023/05/24 04:17:54;;;;;;;18.63;5.07;;;8.00;99.90;;;;;;5119996;27;20216;-80
2023/05/24 04:20:22;;;;;;;19.60;5.07;;;8.00;99.90;;;;;;5120209;27;20192;-80
2023/05/24 04:22:49;;;;;;;20.70;5.13;;;8.10;99.90;;;;;;5132804;27;20264;-80
2023/05/24 04:25:16;;;;;;;13.87;4.07;;;8.10;99.90;;;;;;5137341;27;20690;-77
2023/05/24 04:27:47;;;;;;;17.60;4.50;;;8.20;99.90;;;;;;5141409;27;20717;-79
2023/05/24 04:30:14;;;;;;;18.93;5.00;;;8.30;99.90;;;;;;5129292;27;20244;-79
2023/05/24 04:32:43;;;;;;;22.40;6.77;;;8.40;99.90;;;;;;5131217;27;20203;-79
2023/05/24 04:35:11;;;;;;;18.57;4.80;;;8.50;99.90;;;;;;5133330;27;20353;-78
2023/05/24 04:37:39;;;;;;;22.30;5.00;;;8.70;99.90;;;;;;5141876;27;20192;-78
2023/05/24 04:40:07;;;;;;;17.23;5.03;;;8.60;99.90;;;;;;5135007;27;20229;-79
2023/05/24 04:42:34;;;;;;;21.27;5.33;;;8.70;99.90;;;;;;5134924;27;20216;-78
2023/05/24 04:45:01;;;;;;;19.73;5.40;;;8.60;99.90;;;;;;5135168;27;20224;-78
2023/05/24 04:47:28;;;;;;;19.23;5.50;;;8.70;99.90;;;;;;5136468;27;20246;-78
2023/05/24 04:49:54;;;;;;;16.30;4.20;;;8.70;99.90;;;;;;5123080;27;20192;-78
2023/05/24 04:52:23;;;;;;;17.90;4.67;;;8.60;99.90;;;;;;5135053;27;20208;-80
2023/05/24 04:54:50;;;;;;;19.50;4.83;;;8.60;99.90;;;;;;5143120;27;20495;-79
2023/05/24 04:57:17;;;;;;;18.13;4.23;;;8.70;99.90;;;;;;5138058;27;20200;-79
2023/05/24 04:59:44;;;;;;;25.03;5.33;;;8.80;99.90;;;;;;5135333;27;20195;-79
2023/05/24 05:02:10;;;;;;;16.53;5.07;;;9.00;99.90;;;;;;5139134;27;20206;-79
2023/05/24 05:04:37;;;;;;;19.07;4.60;;;9.20;99.90;;;;;;5120099;27;20224;-80
2023/05/24 05:07:04;;;;;;;15.47;4.57;;;9.30;99.90;;;;;;5114781;28;20203;-80
2023/05/24 05:09:32;;;;;;;18.73;5.00;;;9.40;99.90;;;;;;5119339;28;20196;-80
2023/05/24 05:11:59;;;;;;;18.90;5.17;;;9.40;99.90;;;;;;5118817;28;20218;-78
2023/05/24 05:14:26;;;;;;;18.93;5.03;;;9.40;99.90;;;;;;5124358;28;20292;-79
2023/05/24 05:16:53;;;;;;;21.87;4.87;;;9.50;99.90;;;;;;5123845;28;20189;-78
2023/05/24 05:19:20;;;;;;;20.27;4.67;;;9.50;99.90;;;;;;5122959;28;20196;-79
2023/05/24 05:21:46;;;;;;;24.40;5.50;;;9.40;99.90;;;;;;5114573;28;20219;-80
2023/05/24 05:24:15;;;;;;;15.80;4.37;;;9.70;99.90;;;;;;5113467;28;20225;-80
2023/05/24 05:26:43;;;;;;;22.60;4.73;;;10.60;99.90;;;;;;5113680;28;20212;-79
2023/05/24 05:29:10;;;;;;;18.90;6.03;;;11.40;99.90;;;;;;5114702;28;20304;-80
2023/05/24 05:31:38;;;;;;;15.20;4.60;;;10.70;99.90;;;;;;5114414;28;20227;-79
2023/05/24 05:34:08;;;;;;;15.43;3.97;;;10.70;99.90;;;;;;5113880;28;20852;-79
2023/05/24 05:36:39;;;;;;;21.97;6.90;;;10.50;99.90;;;;;;5114067;28;20205;-79
2023/05/24 05:39:08;;;;;;;17.00;4.63;;;10.80;99.90;;;;;;5115738;28;20238;-78
2023/05/24 05:41:36;;;;;;;18.97;4.70;;;10.90;99.90;;;;;;5114924;28;20698;-78
2023/05/24 05:44:04;;;;;;;17.27;4.30;;;11.60;99.90;;;;;;5114676;28;20281;-79
2023/05/24 05:46:31;;;;;;;21.07;5.03;;;11.50;99.90;;;;;;5114894;28;20675;-79
2023/05/24 05:48:58;;;;;;;16.90;4.63;;;11.90;99.90;;;;;;5114819;28;20571;-79
2023/05/24 05:51:25;;;;;;;17.33;4.17;;;11.10;99.90;;;;;;5126541;28;20704;-79
2023/05/24 05:53:51;;;;;;;17.37;4.97;;;10.80;99.90;;;;;;5125787;28;20208;-79
2023/05/24 05:56:18;;;;;;;14.10;4.13;;;10.50;99.90;;;;;;5131765;28;20211;-80
2023/05/24 05:58:45;;;;;;;20.80;4.50;;;10.50;99.90;;;;;;5128842;28;20197;-79
2023/05/24 06:01:13;;;;;;;16.23;4.27;;;10.50;99.90;;;;;;5135441;28;20279;-81
2023/05/24 06:03:40;;;;;;;14.03;4.13;;;10.60;99.90;;;;;;5134739;28;20220;-79
2023/05/24 06:06:07;;;;;;;17.30;4.30;;;10.70;99.90;;;;;;5135203;28;20233;-79
2023/05/24 06:08:34;;;;;;;22.40;5.00;;;10.90;99.90;;;;;;5134385;28;20210;-78
2023/05/24 06:11:01;;;;;;;20.97;4.77;;;11.00;99.90;;;;;;5134194;28;20591;-80
2023/05/24 06:13:28;;;;;;;21.27;4.40;;;10.90;99.90;;;;;;5134625;28;20220;-79
2023/05/24 06:15:55;;;;;;;17.90;4.50;;;10.90;99.90;;;;;;5129419;27;20262;-78
2023/05/24 06:18:23;;;;;;;18.23;4.23;;;10.80;99.90;;;;;;5117345;28;20213;-79
2023/05/24 06:20:50;;;;;;;22.47;4.90;;;10.90;99.90;;;;;;5118061;28;20197;-78
2023/05/24 06:23:16;;;;;;;13.87;3.73;;;10.80;99.90;;;;;;5117719;28;20217;-78
2023/05/24 06:25:43;;;;;;;16.07;4.33;;;10.80;99.90;;;;;;5116958;28;20595;-79
2023/05/24 06:28:10;;;;;;;16.47;5.57;;;10.80;99.90;;;;;;5117526;28;20264;-78
2023/05/24 06:30:37;;;;;;;22.00;4.93;;;10.90;99.90;;;;;;5117740;28;20217;-79
2023/05/24 06:33:04;;;;;;;13.00;3.70;;;11.00;99.90;;;;;;5117468;28;20205;-79
2023/05/24 06:35:32;;;;;;;15.40;4.87;;;10.90;99.90;;;;;;5117165;28;20208;-80
2023/05/24 06:37:58;;;;;;;13.17;4.43;;;11.00;99.90;;;;;;5118041;28;20573;-79
2023/05/24 06:40:25;;;;;;;19.63;4.63;;;11.10;99.90;;;;;;5117528;28;20653;-80
2023/05/24 06:42:52;;;;;;;22.27;4.70;;;11.20;99.90;;;;;;5116328;28;20690;-79
2023/05/24 06:45:19;;;;;;;18.73;4.53;;;11.20;99.90;;;;;;5117085;28;20199;-79
2023/05/24 06:47:46;;;;;;;17.30;4.43;;;11.30;99.90;;;;;;5117235;28;20717;-80
2023/05/24 06:50:13;;;;;;;14.97;3.90;;;11.10;99.90;;;;;;5117341;28;20227;-78
2023/05/24 06:52:42;;;;;;;15.93;4.20;;;11.30;99.90;;;;;;5116881;28;20754;-78
2023/05/24 06:55:09;;;;;;;16.57;4.33;;;11.30;99.90;;;;;;5117711;28;20227;-79
2023/05/24 06:57:36;;;;;;;16.73;4.73;;;11.30;99.90;;;;;;5117545;28;20204;-79
2023/05/24 07:00:04;;;;;;;26.73;4.87;;;11.40;99.90;;;;;;5117860;28;20226;-79
2023/05/24 07:02:30;;;;;;;17.37;4.07;;;11.60;99.90;;;;;;5117063;28;20205;-80
2023/05/24 07:04:57;;;;;;;19.53;4.20;;;11.60;99.90;;;;;;5117403;28;20288;-78
2023/05/24 07:07:24;;;;;;;15.87;4.80;;;11.60;99.90;;;;;;5117867;28;20300;-79
2023/05/24 07:09:52;;;;;;;17.83;4.87;;;11.70;99.90;;;;;;5117093;28;20215;-79
2023/05/24 07:12:19;;;;;;;15.53;4.00;;;11.90;99.90;;;;;;5116347;28;20228;-79
2023/05/24 07:14:46;;;;;;;14.93;4.70;;;12.00;99.90;;;;;;5116660;28;20233;-78
2023/05/24 07:17:12;;;;;;;16.83;4.47;;;11.80;99.90;;;;;;5116864;28;20325;-79
2023/05/24 07:19:42;;;;;;;18.90;4.67;;;11.70;99.90;;;;;;5115657;28;20221;-80
2023/05/24 07:22:08;;;;;;;17.80;5.20;;;12.00;99.90;;;;;;5116000;28;20197;-78
2023/05/24 07:24:35;;;;;;;16.30;5.27;;;11.90;99.90;;;;;;5116443;28;20223;-78
2023/05/24 07:27:04;;;;;;;14.93;4.50;;;12.00;99.90;;;;;;5115776;28;20197;-78
2023/05/24 07:29:31;;;;;;;16.67;5.07;;;12.00;99.90;;;;;;5116895;28;20650;-78
2023/05/24 07:31:58;;;;;;;14.60;4.33;;;11.90;99.90;;;;;;5116444;28;20216;-79
2023/05/24 07:34:26;;;;;;;13.30;4.43;;;11.90;99.90;;;;;;5117370;28;20217;-79
2023/05/24 07:36:53;;;;;;;11.67;4.57;;;11.90;99.90;;;;;;5117604;28;20205;-78
2023/05/24 07:39:20;;;;;;;17.10;4.77;;;11.90;99.90;;;;;;5116631;28;20201;-80
2023/05/24 07:41:47;;;;;;;21.17;4.73;;;12.00;99.90;;;;;;5116377;28;20201;-79
2023/05/24 07:44:15;;;;;;;14.97;4.60;;;12.10;99.90;;;;;;5116656;28;20235;-78
2023/05/24 07:46:42;;;;;;;16.67;4.50;;;12.20;99.90;;;;;;5116256;28;20291;-79
2023/05/24 07:49:08;;;;;;;22.00;5.20;;;11.80;99.90;;;;;;5115621;28;20200;-78
2023/05/24 07:51:35;;;;;;;18.70;5.40;;;12.00;99.90;;;;;;5128027;27;20222;-78
2023/05/24 07:54:02;;;;;;;31.10;6.10;;;12.30;99.90;;;;;;5147264;27;20632;-78
2023/05/24 07:56:29;;;;;;;16.53;4.93;;;12.30;99.90;;;;;;5150020;27;20204;-77
2023/05/24 07:59:02;;;;;;;14.97;4.60;;;12.40;99.90;;;;;;5146890;27;20195;-78
2023/05/24 08:01:30;;;;;;;17.03;4.67;;;12.50;99.90;;;;;;5151578;27;20547;-78
2023/05/24 08:03:57;;;;;;;11.27;4.77;;;12.60;99.90;;;;;;5150873;27;20216;-79
2023/05/24 08:06:24;;;;;;;17.67;4.73;;;12.50;99.90;;;;;;5132071;27;20204;-80
2023/05/24 08:08:51;;;;;;;15.53;4.57;;;12.50;99.90;;;;;;5136351;27;20240;-79
2023/05/24 08:11:18;;;;;;;12.60;4.07;;;12.90;99.90;;;;;;5115095;28;20223;-79
2023/05/24 08:13:45;;;;;;;12.53;4.73;;;12.60;99.90;;;;;;5114853;28;20316;-79
2023/05/24 08:16:12;;;;;;;15.97;4.23;;;12.70;99.90;;;;;;5115492;28;20205;-79
2023/05/24 08:18:40;;;;;;;12.77;4.83;;;12.40;99.90;;;;;;5132522;27;20249;-78
2023/05/24 08:21:07;;;;;;;15.83;4.23;;;12.20;99.90;;;;;;5119204;27;20196;-77
2023/05/24 08:23:35;;;;;;;14.13;4.73;;;12.10;99.90;;;;;;5114598;28;20244;-78
2023/05/24 08:26:01;;;;;;;14.03;4.40;;;12.00;99.90;;;;;;5114712;28;20200;-78
2023/05/24 08:28:29;;;;;;;15.37;4.10;;;12.10;99.90;;;;;;5115124;28;20720;-77
2023/05/24 08:30:56;;;;;;;14.83;4.20;;;12.00;99.90;;;;;;5114892;28;20197;-79
2023/05/24 08:33:23;;;;;;;15.43;4.57;;;12.10;99.90;;;;;;5114639;28;20232;-79
2023/05/24 08:35:51;;;;;;;12.07;3.90;;;12.10;99.90;;;;;;5115123;28;20656;-78
2023/05/24 08:38:18;;;;;;;11.90;3.70;;;12.20;99.90;;;;;;5114166;28;20714;-79
2023/05/24 08:40:45;;;;;;;14.07;4.73;;;12.20;99.90;;;;;;5114666;28;20205;-79
2023/05/24 08:43:12;;;;;;;19.77;5.63;;;12.20;99.90;;;;;;5127256;27;20652;-78
2023/05/24 08:45:39;;;;;;;16.17;5.27;;;11.60;99.90;;;;;;5134888;27;20699;-79
2023/05/24 08:48:07;;;;;;;14.20;5.40;;;11.30;99.90;;;;;;5122899;27;20577;-78
2023/05/24 08:50:34;;;;;;;18.03;5.37;;;11.20;99.90;;;;;;5114343;28;20264;-79
2023/05/24 08:53:05;;;;;;;18.07;5.97;;;11.10;99.90;;;;;;5113579;28;20223;-79
2023/05/24 08:55:32;;;;;;;18.57;5.53;;;11.10;99.90;;;;;;5113500;28;20292;-78
2023/05/24 08:58:00;;;;;;;15.80;4.90;;;11.00;99.90;;;;;;5113437;28;20864;-77
2023/05/24 09:00:27;;;;;;;14.67;5.57;;;11.10;99.90;;;;;;5114123;28;20207;-77
2023/05/24 09:02:54;;;;;;;17.70;5.87;;;11.10;99.90;;;;;;5114798;28;20269;-78
2023/05/24 09:05:21;;;;;;;20.10;6.13;;;11.20;99.90;;;;;;5115412;28;20197;-79
2023/05/24 09:07:49;;;;;;;16.07;5.40;;;11.10;99.90;;;;;;5114783;28;20199;-79
2023/05/24 09:10:20;;;;;;;17.83;5.50;;;11.10;99.90;;;;;;5121628;28;20217;-79
2023/05/24 09:12:51;;;;;;;17.33;5.23;;;11.20;99.90;;;;;;5116306;28;20216;-78
2023/05/24 09:15:18;;;;;;;15.93;6.23;;;11.10;99.90;;;;;;5114309;28;20291;-79
2023/05/24 09:17:45;;;;;;;16.00;5.47;;;11.10;99.90;;;;;;5123789;28;20545;-78
2023/05/24 09:20:13;;;;;;;22.10;5.80;;;11.10;99.90;;;;;;5133446;28;20203;-78
2023/05/24 09:22:42;;;;;;;16.93;5.17;;;11.20;99.90;;;;;;5113570;28;20193;-78
2023/05/24 09:25:10;;;;;;;13.53;5.90;;;11.10;99.90;;;;;;5114233;28;20220;-78
2023/05/24 09:27:39;;;;;;;16.23;4.67;;;11.00;99.90;;;;;;5113614;28;20580;-79
2023/05/24 09:30:09;;;;;;;18.10;5.20;;;10.80;99.90;;;;;;5114030;28;20664;-78
2023/05/24 09:32:36;;;;;;;14.43;4.73;;;10.90;99.90;;;;;;5115070;28;20209;-78
2023/05/24 09:35:07;;;;;;;17.00;5.40;;;11.00;99.90;;;;;;5135017;28;20316;-80
2023/05/24 09:37:37;;;;;;;19.00;5.27;;;11.10;99.90;;;;;;5135419;28;20208;-78
2023/05/24 09:40:05;;;;;;;18.17;5.33;;;11.10;99.90;;;;;;5135539;28;20222;-78
2023/05/24 09:42:32;;;;;;;16.80;5.47;;;11.00;99.90;;;;;;5119021;28;20205;-78
2023/05/24 09:45:01;;;;;;;10.03;4.43;;;11.10;99.90;;;;;;5115448;28;20224;-77
2023/05/24 09:47:31;;;;;;;13.63;4.73;;;11.00;99.90;;;;;;5131130;28;20205;-80
2023/05/24 09:49:58;;;;;;;15.97;5.03;;;11.10;99.90;;;;;;5135919;27;20257;-79
2023/05/24 09:52:25;;;;;;;16.77;5.10;;;11.40;99.90;;;;;;5123888;27;20236;-79
2023/05/24 09:54:52;;;;;;;14.47;5.23;;;11.60;99.90;;;;;;5118332;28;20227;-79
2023/05/24 09:57:21;;;;;;;11.57;4.43;;;11.50;99.90;;;;;;5133128;27;20295;-78
2023/05/24 09:59:49;;;;;;;17.37;6.13;;;11.70;99.90;;;;;;5139585;27;20235;-78
2023/05/24 10:02:19;;;;;;;12.63;5.00;;;11.60;99.90;;;;;;5124252;27;20209;-78
2023/05/24 10:04:46;;;;;;;14.60;4.90;;;12.00;99.90;;;;;;5116991;28;20244;-78
2023/05/24 10:07:15;;;;;;;14.60;5.10;;;12.10;99.90;;;;;;5117654;28;20197;-78
2023/05/24 10:09:44;;;;;;;19.73;6.23;;;11.70;99.90;;;;;;5117849;28;20201;-78
2023/05/24 10:12:11;;;;;;;15.10;5.13;;;11.90;99.90;;;;;;5117567;28;20579;-78
2023/05/24 10:14:38;;;;;;;18.27;4.80;;;11.90;99.90;;;;;;5117482;28;20247;-78
2023/05/24 10:17:06;;;;;;;15.17;5.57;;;11.70;99.90;;;;;;5118005;28;20649;-78
2023/05/24 10:19:36;;;;;;;16.80;5.53;;;11.90;99.90;;;;;;5117480;28;20205;-77
2023/05/24 10:22:07;;;;;;;17.97;7.13;;;11.80;99.90;;;;;;5117523;28;20201;-78
2023/05/24 10:24:38;;;;;;;17.27;6.47;;;12.00;99.90;;;;;;5117306;28;20235;-78
2023/05/24 10:27:09;;;;;;;18.93;6.40;;;11.90;99.90;;;;;;5117102;28;20256;-79
2023/05/24 10:29:45;;;;;;;23.20;7.37;;;11.80;99.90;;;;;;5118720;28;20637;-80
2023/05/24 10:32:15;;;;;;;14.97;5.67;;;11.80;99.90;;;;;;5132729;27;20618;-79
2023/05/24 10:34:44;;;;;;;16.37;6.37;;;11.80;99.90;;;;;;5123044;27;20275;-80
2023/05/24 10:37:11;;;;;;;18.40;6.23;;;11.80;99.90;;;;;;5118030;27;20642;-79
2023/05/24 10:39:38;;;;;;;14.93;5.80;;;11.60;99.90;;;;;;5137678;27;20192;-79
2023/05/24 10:42:06;;;;;;;17.07;6.63;;;11.50;99.90;;;;;;5119591;27;20292;-79
2023/05/24 10:44:33;;;;;;;17.20;6.10;;;11.80;99.90;;;;;;5117444;28;20258;-80
2023/05/24 10:47:11;;;;;;;20.77;6.13;;;11.80;99.90;;;;;;5117415;28;20208;-79
2023/05/24 10:49:38;;;;;;;20.27;5.80;;;12.00;99.90;;;;;;5116640;28;20243;-80
2023/05/24 10:52:10;;;;;;;20.00;7.93;;;12.00;99.90;;;;;;5136098;27;20228;-80
2023/05/24 10:54:37;;;;;;;16.60;6.87;;;12.10;99.90;;;;;;5138846;27;20220;-80
2023/05/24 10:57:06;;;;;;;17.03;5.93;;;12.20;99.90;;;;;;5138681;27;20856;-80
2023/05/24 10:59:36;;;;;;;26.37;6.90;;;11.80;99.90;;;;;;5137990;27;20208;-78
2023/05/24 11:02:05;;;;;;;16.73;6.73;;;11.90;99.90;;;;;;5125254;27;20197;-79
2023/05/24 11:04:37;;;;;;;17.33;6.37;;;12.00;99.90;;;;;;5116923;28;20225;-79
2023/05/24 11:07:08;;;;;;;11.90;5.67;;;11.90;99.90;;;;;;5117374;28;20236;-79
2023/05/24 11:09:44;;;;;;;16.27;6.10;;;11.80;99.90;;;;;;5136404;27;20211;-79
2023/05/24 11:12:14;;;;;;;18.97;6.67;;;11.60;99.90;;;;;;5138091;27;20212;-80
2023/05/24 11:14:46;;;;;;;17.73;8.00;;;11.90;99.90;;;;;;5137863;27;20235;-79
2023/05/24 11:17:13;;;;;;;17.10;7.53;;;12.00;99.90;;;;;;5136950;27;20203;-78
2023/05/24 11:19:46;;;;;;;19.80;7.17;;;11.90;99.90;;;;;;5137202;27;20295;-79
2023/05/24 11:22:14;;;;;;;17.13;7.23;;;11.90;99.90;;;;;;5117824;27;20274;-79
2023/05/24 11:24:43;;;;;;;23.83;7.30;;;12.00;99.90;;;;;;5115521;28;20229;-78
2023/05/24 11:27:12;;;;;;;21.80;7.80;;;11.80;99.90;;;;;;5116692;28;20208;-79
2023/05/24 11:29:43;;;;;;;14.97;6.87;;;11.50;99.90;;;;;;5116487;28;20200;-78
2023/05/24 11:32:14;;;;;;;17.17;6.83;;;11.80;99.90;;;;;;5135921;27;20228;-79
2023/05/24 11:34:43;;;;;;;18.00;7.63;;;11.80;99.90;;;;;;5138389;27;20223;-79
2023/05/24 11:37:11;;;;;;;17.80;7.53;;;11.90;99.90;;;;;;5137491;27;20204;-79
2023/05/24 11:39:38;;;;;;;20.03;7.47;;;11.90;99.90;;;;;;5137545;27;20200;-78
2023/05/24 11:42:07;;;;;;;18.00;7.53;;;12.10;99.90;;;;;;5119376;27;20266;-78
2023/05/24 11:44:36;;;;;;;20.33;7.80;;;12.20;99.90;;;;;;5135497;27;20216;-78
2023/05/24 11:47:05;;;;;;;16.83;7.10;;;12.10;99.90;;;;;;5137326;27;20204;-80
2023/05/24 11:49:32;;;;;;;17.17;7.30;;;12.20;99.90;;;;;;5135735;27;20198;-79
2023/05/24 11:52:00;;;;;;;14.13;6.23;;;12.40;99.90;;;;;;5115917;28;20219;-80
2023/05/24 11:54:28;;;;;;;15.87;6.23;;;12.70;99.90;;;;;;5116450;28;20220;-80
2023/05/24 11:56:55;;;;;;;15.93;6.20;;;12.70;99.90;;;;;;5116417;28;20285;-79
2023/05/24 11:59:25;;;;;;;18.07;7.97;;;12.80;99.90;;;;;;5116175;28;20212;-78
2023/05/24 12:01:58;;;;;;;17.20;6.97;;;12.60;99.90;;;;;;5127319;27;20273;-78
2023/05/24 12:04:26;;;;;;;12.70;6.67;;;12.60;99.90;;;;;;5118884;27;20248;-79
2023/05/24 12:06:53;;;;;;;13.60;6.17;;;12.60;99.90;;;;;;5118811;27;20224;-79
2023/05/24 12:09:21;;;;;;;16.33;5.97;;;12.60;99.90;;;;;;5115159;28;20216;-79
2023/05/24 12:11:50;;;;;;;17.33;6.00;;;12.80;99.90;;;;;;5115970;28;20236;-79
2023/05/24 12:14:18;;;;;;;10.33;5.47;;;13.10;99.90;;;;;;5112669;28;20234;-79
2023/05/24 12:16:47;;;;;;;12.13;5.53;;;13.30;99.90;;;;;;5128700;27;20664;-78
2023/05/24 12:19:18;;;;;;;12.30;5.50;;;13.20;99.90;;;;;;5120019;27;20278;-77
2023/05/24 12:21:45;;;;;;;15.20;5.67;;;13.20;99.90;;;;;;5114555;28;20623;-77
2023/05/24 12:24:13;;;;;;;15.63;5.63;;;13.20;99.90;;;;;;5131516;27;20224;-78
2023/05/24 12:26:43;;;;;;;20.67;7.30;;;13.10;99.90;;;;;;5134437;27;20204;-77
2023/05/24 12:29:11;;;;;;;15.20;5.40;;;13.30;99.90;;;;;;5135139;27;20200;-77
2023/05/24 12:31:41;;;;;;;15.83;6.73;;;13.20;99.90;;;;;;5135310;27;20207;-78
2023/05/24 12:34:11;;;;;;;19.17;6.87;;;13.40;99.90;;;;;;5127537;27;20246;-78
2023/05/24 12:36:38;;;;;;;13.97;6.37;;;13.20;99.90;;;;;;5123725;27;20225;-80
2023/05/24 12:39:17;;;;;;;16.37;6.80;;;13.30;99.90;;;;;;5115948;28;20189;-78
2023/05/24 12:41:44;;;;;;;15.90;6.40;;;13.70;99.90;;;;;;5115454;28;20216;-78
2023/05/24 12:44:12;;;;;;;17.93;7.00;;;13.70;99.90;;;;;;5115597;28;20289;-80
2023/05/24 12:46:39;;;;;;;14.73;6.77;;;13.90;99.90;;;;;;5115152;28;20205;-79